createdAt,value
2022-08-29T00:00:31.489Z,2.20
2022-08-29T00:03:00.057Z,2.40
2022-08-29T00:05:33.199Z,2.00
2022-08-29T00:08:01.324Z,2.30
2022-08-29T00:10:29.667Z,2.67
2022-08-29T00:12:57.799Z,2.40
2022-08-29T00:15:24.993Z,2.03
2022-08-29T00:17:51.636Z,2.27
2022-08-29T00:20:26.171Z,1.90
2022-08-29T00:23:00.469Z,2.33
2022-08-29T00:25:27.186Z,2.23
2022-08-29T00:27:54.054Z,2.43
2022-08-29T00:30:22.505Z,2.40
2022-08-29T00:32:49.185Z,2.13
2022-08-29T00:35:25.685Z,2.40
2022-08-29T00:37:54.568Z,1.90
2022-08-29T00:40:26.567Z,2.20
2022-08-29T00:42:53.324Z,2.10
2022-08-29T00:45:19.970Z,2.60
2022-08-29T00:47:55.906Z,1.90
2022-08-29T00:50:34.259Z,2.60
2022-08-29T00:53:02.438Z,2.40
2022-08-29T00:55:33.386Z,2.03
2022-08-29T00:58:07.638Z,2.93
2022-08-29T01:00:34.564Z,2.13
2022-08-29T01:03:02.816Z,2.43
2022-08-29T01:05:29.383Z,2.80
2022-08-29T01:07:56.331Z,2.20
2022-08-29T01:10:41.956Z,1.87
2022-08-29T01:13:11.403Z,2.03
2022-08-29T01:15:40.293Z,2.57
2022-08-29T01:18:09.418Z,2.33
2022-08-29T01:21:02.530Z,2.27
2022-08-29T01:23:46.906Z,2.47
2022-08-29T01:26:13.724Z,2.50
2022-08-29T01:28:47.138Z,2.33
2022-08-29T01:31:44.711Z,1.93
2022-08-29T01:34:08.919Z,2.33
2022-08-29T01:36:45.194Z,2.23
2022-08-29T01:39:11.644Z,2.50
2022-08-29T01:41:38.074Z,2.63
2022-08-29T01:44:11.912Z,2.30
2022-08-29T01:46:38.766Z,2.27
2022-08-29T01:49:08.058Z,2.20
2022-08-29T01:51:35.491Z,2.30
2022-08-29T01:54:01.921Z,2.50
2022-08-29T01:56:31.285Z,2.43
2022-08-29T01:59:00.979Z,2.40
2022-08-29T02:01:34.087Z,2.17
2022-08-29T02:04:00.835Z,2.30
2022-08-29T02:06:28.389Z,2.10
2022-08-29T02:08:54.878Z,2.10
2022-08-29T02:11:22.044Z,2.43
2022-08-29T02:13:55.435Z,2.23
2022-08-29T02:16:23.828Z,2.40
2022-08-29T02:18:50.857Z,2.50
2022-08-29T02:21:21.497Z,2.13
2022-08-29T02:23:52.327Z,2.33
2022-08-29T02:26:21.562Z,2.40
2022-08-29T02:28:51.706Z,2.20
2022-08-29T02:31:20.154Z,2.50
2022-08-29T02:33:46.922Z,2.20
2022-08-29T02:36:13.754Z,2.50
2022-08-29T02:38:40.778Z,2.27
2022-08-29T02:41:09.351Z,2.57
2022-08-29T02:43:39.289Z,2.40
2022-08-29T02:46:06.193Z,2.27
2022-08-29T02:48:32.873Z,2.73
2022-08-29T02:50:59.440Z,2.73
2022-08-29T02:53:27.686Z,2.20
2022-08-29T02:55:54.962Z,2.33
2022-08-29T02:58:22.623Z,2.40
2022-08-29T03:00:49.967Z,2.20
2022-08-29T03:03:18.078Z,1.93
2022-08-29T03:05:44.593Z,1.73
2022-08-29T03:08:14.009Z,2.53
2022-08-29T03:10:42.072Z,2.10
2022-08-29T03:13:09.313Z,2.20
2022-08-29T03:15:35.966Z,2.20
2022-08-29T03:18:02.600Z,2.20
2022-08-29T03:20:29.238Z,2.60
2022-08-29T03:22:55.742Z,2.90
2022-08-29T03:25:23.385Z,2.47
2022-08-29T03:27:50.187Z,2.17
2022-08-29T03:30:18.056Z,2.20
2022-08-29T03:32:45.894Z,2.27
2022-08-29T03:35:13.571Z,2.37
2022-08-29T03:37:40.414Z,2.40
2022-08-29T03:40:09.181Z,2.57
2022-08-29T03:42:35.802Z,2.27
2022-08-29T03:45:09.655Z,2.43
2022-08-29T03:47:36.611Z,2.27
2022-08-29T03:50:04.771Z,2.80
2022-08-29T03:52:31.254Z,2.20
2022-08-29T03:54:57.793Z,2.60
2022-08-29T03:57:26.513Z,2.23
2022-08-29T03:59:54.565Z,2.30
2022-08-29T04:02:21.046Z,2.43
2022-08-29T04:05:07.948Z,2.63
2022-08-29T04:07:49.805Z,2.23
2022-08-29T04:10:21.698Z,2.53
2022-08-29T04:12:54.321Z,2.47
2022-08-29T04:15:21.898Z,2.40
2022-08-29T04:17:53.099Z,2.70
2022-08-29T04:20:24.781Z,2.43
2022-08-29T04:22:52.908Z,2.27
2022-08-29T04:25:19.325Z,2.50
2022-08-29T04:27:45.950Z,2.80
2022-08-29T04:30:16.770Z,2.10
2022-08-29T04:32:47.235Z,2.50
2022-08-29T04:35:15.067Z,2.43
2022-08-29T04:37:42.557Z,3.10
2022-08-29T04:40:13.544Z,3.17
2022-08-29T04:42:41.290Z,2.97
2022-08-29T04:45:14.262Z,2.70
2022-08-29T04:47:42.947Z,2.80
2022-08-29T04:50:12.763Z,3.33
2022-08-29T04:52:39.480Z,2.93
2022-08-29T04:55:08.061Z,2.73
2022-08-29T04:57:36.514Z,2.70
2022-08-29T05:00:07.287Z,2.77
2022-08-29T05:02:33.703Z,2.50
2022-08-29T05:05:00.181Z,2.90
2022-08-29T05:07:27.053Z,2.87
2022-08-29T05:10:07.034Z,2.80
2022-08-29T05:12:33.986Z,2.30
2022-08-29T05:15:00.738Z,2.77
2022-08-29T05:17:27.311Z,2.70
2022-08-29T05:19:54.109Z,2.50
2022-08-29T05:22:21.256Z,2.80
2022-08-29T05:24:49.110Z,2.63
2022-08-29T05:27:18.743Z,2.70
2022-08-29T05:29:47.497Z,2.83
2022-08-29T05:32:21.233Z,2.53
2022-08-29T05:34:49.462Z,2.60
2022-08-29T05:37:19.403Z,2.67
2022-08-29T05:39:46.759Z,2.70
2022-08-29T05:42:13.446Z,2.63
2022-08-29T05:44:40.615Z,2.70
2022-08-29T05:47:10.886Z,3.30
2022-08-29T05:49:39.364Z,2.57
2022-08-29T05:52:07.292Z,3.10
2022-08-29T05:54:36.311Z,2.70
2022-08-29T05:57:03.474Z,3.03
2022-08-29T05:59:30.126Z,3.10
2022-08-29T06:01:56.654Z,3.03
2022-08-29T06:04:23.353Z,2.90
2022-08-29T06:06:50.724Z,3.00
2022-08-29T06:09:17.571Z,2.80
2022-08-29T06:11:47.799Z,3.03
2022-08-29T06:14:15.102Z,2.90
2022-08-29T06:16:42.126Z,3.03
2022-08-29T06:19:08.673Z,3.00
2022-08-29T06:21:35.656Z,3.10
2022-08-29T06:24:02.322Z,2.67
2022-08-29T06:26:28.751Z,2.80
2022-08-29T06:28:55.134Z,2.53
2022-08-29T06:31:28.139Z,2.70
2022-08-29T06:34:00.089Z,2.60
2022-08-29T06:36:28.033Z,2.93
2022-08-29T06:38:59.308Z,2.90
2022-08-29T06:41:26.786Z,2.93
2022-08-29T06:43:55.635Z,3.20
2022-08-29T06:46:31.752Z,3.03
2022-08-29T06:49:01.643Z,3.47
2022-08-29T06:51:32.883Z,3.40
2022-08-29T06:54:04.158Z,2.90
2022-08-29T06:56:34.739Z,2.70
2022-08-29T06:59:03.881Z,3.20
2022-08-29T07:01:31.359Z,2.73
2022-08-29T07:04:00.426Z,3.00
2022-08-29T07:06:28.059Z,2.77
2022-08-29T07:08:55.825Z,2.83
2022-08-29T07:11:27.736Z,3.30
2022-08-29T07:13:57.942Z,3.03
2022-08-29T07:16:26.351Z,3.37
2022-08-29T07:18:53.456Z,3.10
2022-08-29T07:21:22.893Z,3.00
2022-08-29T07:23:50.704Z,3.33
2022-08-29T07:26:20.426Z,2.83
2022-08-29T07:28:48.446Z,3.20
2022-08-29T07:31:15.112Z,3.10
2022-08-29T07:33:42.023Z,3.20
2022-08-29T07:36:08.938Z,3.70
2022-08-29T07:38:36.026Z,3.07
2022-08-29T07:41:06.714Z,3.27
2022-08-29T07:43:33.622Z,2.93
2022-08-29T07:46:06.643Z,3.73
2022-08-29T07:48:33.170Z,3.17
2022-08-29T07:50:59.623Z,2.50
2022-08-29T07:53:26.157Z,3.00
2022-08-29T07:55:52.658Z,3.23
2022-08-29T07:58:19.040Z,3.10
2022-08-29T08:00:45.547Z,2.90
2022-08-29T08:03:14.290Z,2.90
2022-08-29T08:05:40.846Z,2.70
2022-08-29T08:08:15.110Z,3.30
2022-08-29T08:10:42.554Z,3.00
2022-08-29T08:13:09.065Z,2.70
2022-08-29T08:15:38.323Z,3.17
2022-08-29T08:18:05.337Z,3.20
2022-08-29T08:20:32.290Z,3.40
2022-08-29T08:22:58.983Z,3.80
2022-08-29T08:25:26.211Z,3.40
2022-08-29T08:27:53.588Z,3.10
2022-08-29T08:30:20.574Z,2.80
2022-08-29T08:32:49.555Z,2.30
2022-08-29T08:35:22.522Z,2.53
2022-08-29T08:37:49.477Z,2.10
2022-08-29T08:40:23.069Z,2.40
2022-08-29T08:42:50.727Z,2.53
2022-08-29T08:45:36.388Z,2.40
2022-08-29T08:48:08.137Z,2.37
2022-08-29T08:50:44.474Z,2.30
2022-08-29T08:53:19.430Z,2.17
2022-08-29T08:55:49.776Z,1.90
2022-08-29T08:58:30.740Z,2.37
2022-08-29T09:01:03.774Z,2.30
2022-08-29T09:03:48.702Z,2.10
2022-08-29T09:06:49.353Z,2.10
2022-08-29T09:09:46.766Z,1.97
2022-08-29T09:12:41.672Z,1.93
2022-08-29T09:15:18.116Z,2.23
2022-08-29T09:17:52.742Z,2.23
2022-08-29T09:20:24.308Z,2.40
2022-08-29T09:23:18.919Z,2.00
2022-08-29T09:25:45.950Z,2.37
2022-08-29T09:28:12.775Z,1.90
2022-08-29T09:30:42.658Z,2.60
2022-08-29T09:33:12.895Z,1.90
2022-08-29T09:35:51.926Z,2.00
2022-08-29T09:38:18.287Z,1.87
2022-08-29T09:40:59.357Z,2.00
2022-08-29T09:43:44.264Z,1.87
2022-08-29T09:46:10.706Z,1.80
2022-08-29T09:48:39.925Z,1.80
2022-08-29T09:51:26.266Z,1.95
2022-08-29T09:53:55.169Z,2.22
2022-08-29T09:56:26.336Z,2.33
2022-08-29T09:59:10.599Z,2.15
2022-08-29T10:01:39.274Z,2.00
2022-08-29T10:04:08.204Z,2.20
2022-08-29T10:06:45.115Z,1.98
2022-08-29T10:09:26.310Z,1.67
2022-08-29T10:12:00.484Z,1.98
2022-08-29T10:14:34.534Z,1.88
2022-08-29T10:17:28.118Z,1.75
2022-08-29T10:19:55.322Z,2.55
2022-08-29T10:22:27.879Z,2.40
2022-08-29T10:24:57.762Z,1.90
2022-08-29T10:27:51.667Z,1.90
2022-08-29T10:30:34.266Z,2.10
2022-08-29T10:33:09.457Z,2.05
2022-08-29T10:35:42.308Z,1.83
2022-08-29T10:38:08.604Z,2.20
2022-08-29T10:40:47.790Z,1.70
2022-08-29T10:43:24.980Z,2.28
2022-08-29T10:46:03.566Z,2.13
2022-08-29T10:48:55.973Z,2.20
2022-08-29T10:51:49.301Z,1.50
2022-08-29T10:54:37.450Z,1.92
2022-08-29T10:57:07.418Z,1.90
2022-08-29T10:59:42.689Z,2.20
2022-08-29T11:02:23.185Z,2.00
2022-08-29T11:04:55.124Z,2.40
2022-08-29T11:07:32.735Z,2.20
2022-08-29T11:10:11.009Z,1.98
2022-08-29T11:12:47.471Z,2.28
2022-08-29T11:15:24.678Z,2.00
2022-08-29T11:18:05.717Z,2.00
2022-08-29T11:20:38.542Z,1.90
2022-08-29T11:23:08.042Z,2.05
2022-08-29T11:25:36.274Z,2.10
2022-08-29T11:28:21.484Z,2.20
2022-08-29T11:31:01.548Z,2.00
2022-08-29T11:33:34.518Z,2.22
2022-08-29T11:36:16.025Z,1.70
2022-08-29T11:39:09.728Z,2.08
2022-08-29T11:41:42.040Z,2.20
2022-08-29T11:44:32.289Z,1.80
2022-08-29T11:46:59.507Z,2.10
2022-08-29T11:49:41.531Z,1.88
2022-08-29T11:52:11.094Z,1.70
2022-08-29T11:54:39.113Z,2.10
2022-08-29T11:57:05.634Z,2.10
2022-08-29T11:59:50.633Z,1.95
2022-08-29T12:02:32.392Z,1.70
2022-08-29T12:05:05.906Z,2.00
2022-08-29T12:07:41.577Z,1.70
2022-08-29T12:10:24.371Z,2.30
2022-08-29T12:12:56.691Z,2.10
2022-08-29T12:15:32.641Z,2.05
2022-08-29T12:18:09.173Z,1.63
2022-08-29T12:20:42.842Z,1.90
2022-08-29T12:23:23.013Z,1.95
2022-08-29T12:26:21.689Z,2.00
2022-08-29T12:29:00.683Z,2.00
2022-08-29T12:32:18.149Z,2.30
2022-08-29T12:35:07.308Z,1.88
2022-08-29T12:38:15.498Z,1.80
2022-08-29T12:40:51.969Z,1.83
2022-08-29T12:43:28.238Z,2.10
2022-08-29T12:45:55.645Z,1.73
2022-08-29T12:48:28.434Z,1.80
2022-08-29T12:50:55.559Z,1.73
2022-08-29T12:53:33.302Z,1.90
2022-08-29T12:56:25.637Z,2.03
2022-08-29T12:58:51.951Z,2.05
2022-08-29T13:01:39.009Z,2.10
2022-08-29T13:04:11.942Z,1.73
2022-08-29T13:06:52.001Z,2.00
2022-08-29T13:09:42.515Z,2.00
2022-08-29T13:12:26.910Z,2.03
2022-08-29T13:15:08.853Z,2.15
2022-08-29T13:17:40.107Z,2.00
2022-08-29T13:20:43.067Z,2.10
2022-08-29T13:23:12.699Z,2.03
2022-08-29T13:25:54.457Z,1.67
2022-08-29T13:28:26.501Z,1.65
2022-08-29T13:31:11.631Z,1.90
2022-08-29T13:34:00.213Z,1.90
2022-08-29T13:36:50.407Z,2.25
2022-08-29T13:39:26.397Z,2.30
2022-08-29T13:42:02.108Z,2.00
2022-08-29T13:44:38.756Z,2.05
2022-08-29T13:47:24.366Z,2.50
2022-08-29T13:49:51.750Z,2.25
2022-08-29T13:52:19.114Z,2.60
2022-08-29T13:54:45.786Z,2.08
2022-08-29T13:57:17.837Z,2.20
2022-08-29T13:59:44.813Z,2.47
2022-08-29T14:02:12.769Z,2.20
2022-08-29T14:04:41.235Z,2.17
2022-08-29T14:07:30.342Z,2.45
2022-08-29T14:09:57.500Z,2.35
2022-08-29T14:12:34.083Z,2.45
2022-08-29T14:15:05.361Z,2.55
2022-08-29T14:17:35.802Z,2.78
2022-08-29T14:20:02.551Z,2.60
2022-08-29T14:22:28.978Z,2.80
2022-08-29T14:24:55.694Z,2.22
2022-08-29T14:27:22.124Z,3.00
2022-08-29T14:29:49.270Z,2.85
2022-08-29T14:32:15.734Z,2.70
2022-08-29T14:34:44.744Z,2.85
2022-08-29T14:37:18.272Z,2.92
2022-08-29T14:39:44.722Z,2.33
2022-08-29T14:42:16.984Z,2.75
2022-08-29T14:44:43.451Z,2.72
2022-08-29T14:47:09.858Z,3.00
2022-08-29T14:49:36.617Z,2.92
2022-08-29T14:52:03.733Z,2.83
2022-08-29T14:54:30.254Z,2.60
2022-08-29T14:56:56.830Z,2.65
2022-08-29T14:59:25.448Z,3.05
2022-08-29T15:01:54.874Z,2.97
2022-08-29T15:04:34.974Z,3.35
2022-08-29T15:07:04.066Z,3.20
2022-08-29T15:09:30.748Z,2.50
2022-08-29T15:11:57.189Z,2.90
2022-08-29T15:14:23.722Z,3.25
2022-08-29T15:16:50.150Z,2.95
2022-08-29T15:19:53.666Z,2.78
2022-08-29T15:22:05.305Z,3.10
2022-08-29T15:24:31.951Z,3.20
2022-08-29T15:26:58.605Z,3.13
2022-08-29T15:29:25.969Z,3.35
2022-08-29T15:31:52.558Z,2.65
2022-08-29T15:34:18.993Z,2.88
2022-08-29T15:36:45.470Z,2.65
2022-08-29T15:39:13.165Z,3.10
2022-08-29T15:41:39.664Z,2.70
2022-08-29T15:44:06.123Z,2.72
2022-08-29T15:46:34.035Z,2.97
2022-08-29T15:49:07.112Z,2.60
2022-08-29T15:51:34.754Z,3.17
2022-08-29T15:54:01.835Z,2.67
2022-08-29T15:56:34.893Z,2.83
2022-08-29T15:59:05.682Z,2.50
2022-08-29T16:01:44.866Z,2.70
2022-08-29T16:04:12.900Z,2.67
2022-08-29T16:06:40.034Z,2.45
2022-08-29T16:09:15.323Z,3.35
2022-08-29T16:11:47.369Z,2.72
2022-08-29T16:17:01.602Z,2.58
2022-08-29T16:19:28.335Z,3.05
2022-08-29T16:21:59.694Z,3.28
2022-08-29T16:24:31.981Z,2.60
2022-08-29T16:26:59.717Z,2.90
2022-08-29T16:29:27.908Z,2.65
2022-08-29T16:31:58.321Z,3.05
2022-08-29T16:34:25.995Z,2.88
2022-08-29T16:36:56.537Z,3.03
2022-08-29T16:39:23.064Z,3.30
2022-08-29T16:41:49.578Z,2.95
2022-08-29T16:44:16.084Z,2.67
2022-08-29T16:46:42.516Z,3.08
2022-08-29T16:49:08.941Z,2.85
2022-08-29T16:51:35.438Z,3.28
2022-08-29T16:54:01.920Z,2.90
2022-08-29T16:56:28.493Z,3.20
2022-08-29T16:59:01.653Z,2.97
2022-08-29T17:01:32.789Z,3.03
2022-08-29T17:04:01.555Z,3.17
2022-08-29T17:06:29.337Z,3.30
2022-08-29T17:08:56.198Z,2.25
2022-08-29T17:11:22.868Z,3.05
2022-08-29T17:13:49.352Z,3.05
2022-08-29T17:16:16.568Z,2.83
2022-08-29T17:18:43.546Z,2.80
2022-08-29T17:21:11.633Z,2.88
2022-08-29T17:23:39.280Z,3.20
2022-08-29T17:26:08.568Z,2.80
2022-08-29T17:28:37.085Z,3.17
2022-08-29T17:31:05.377Z,3.08
2022-08-29T17:33:32.460Z,3.05
2022-08-29T17:35:59.386Z,2.97
2022-08-29T17:38:27.034Z,3.03
2022-08-29T17:41:01.218Z,3.35
2022-08-29T17:43:31.204Z,3.10
2022-08-29T17:45:57.868Z,2.78
2022-08-29T17:48:24.885Z,2.97
2022-08-29T17:50:51.682Z,3.00
2022-08-29T17:53:18.908Z,2.78
2022-08-29T17:55:46.324Z,2.95
2022-08-29T17:58:13.826Z,3.50
2022-08-29T18:00:40.484Z,3.10
2022-08-29T18:03:07.029Z,3.30
2022-08-29T18:05:33.518Z,2.70
2022-08-29T18:08:00.165Z,2.85
2022-08-29T18:10:26.944Z,2.85
2022-08-29T18:12:53.393Z,3.17
2022-08-29T18:15:19.902Z,2.88
2022-08-29T18:17:46.369Z,3.33
2022-08-29T18:20:15.597Z,3.35
2022-08-29T18:22:43.242Z,2.92
2022-08-29T18:25:11.452Z,2.97
2022-08-29T18:27:43.078Z,3.28
2022-08-29T18:30:13.198Z,3.08
2022-08-29T18:32:40.593Z,2.92
2022-08-29T18:35:07.748Z,2.95
2022-08-29T18:37:34.399Z,2.97
2022-08-29T18:40:09.367Z,3.42
2022-08-29T18:42:41.055Z,3.35
2022-08-29T18:45:09.822Z,3.17
2022-08-29T18:47:37.007Z,3.17
2022-08-29T18:50:25.086Z,3.30
2022-08-29T18:52:52.317Z,3.10
2022-08-29T18:55:19.099Z,3.17
2022-08-29T18:57:47.059Z,3.63
2022-08-29T19:00:14.351Z,3.33
2022-08-29T19:02:41.041Z,3.40
2022-08-29T19:05:08.297Z,3.47
2022-08-29T19:07:34.684Z,3.25
2022-08-29T19:10:01.085Z,3.22
2022-08-29T19:12:27.608Z,3.33
2022-08-29T19:14:54.036Z,2.72
2022-08-29T19:17:20.464Z,3.67
2022-08-29T19:20:10.260Z,3.08
2022-08-29T19:22:37.619Z,3.22
2022-08-29T19:25:08.640Z,3.55
2022-08-29T19:27:43.659Z,3.53
2022-08-29T19:30:13.662Z,3.57
2022-08-29T19:32:40.719Z,3.10
2022-08-29T19:35:07.978Z,3.25
2022-08-29T19:37:34.407Z,3.13
2022-08-29T19:40:02.230Z,3.37
2022-08-29T19:42:28.923Z,3.40
2022-08-29T19:44:55.318Z,3.15
2022-08-29T19:47:23.938Z,3.47
2022-08-29T19:49:50.841Z,3.43
2022-08-29T19:52:17.558Z,3.30
2022-08-29T19:54:44.249Z,3.03
2022-08-29T19:57:13.332Z,3.30
2022-08-29T19:59:41.099Z,3.23
2022-08-29T20:02:09.539Z,3.07
2022-08-29T20:04:36.343Z,2.80
2022-08-29T20:07:03.414Z,3.40
2022-08-29T20:09:29.999Z,2.70
2022-08-29T20:11:57.085Z,3.17
2022-08-29T20:14:23.793Z,2.53
2022-08-29T20:16:51.999Z,3.40
2022-08-29T20:19:21.164Z,2.70
2022-08-29T20:21:48.922Z,3.17
2022-08-29T20:24:16.539Z,3.27
2022-08-29T20:26:44.641Z,3.00
2022-08-29T20:29:12.244Z,3.00
2022-08-29T20:31:40.288Z,3.07
2022-08-29T20:34:07.074Z,3.20
2022-08-29T20:36:52.271Z,3.13
2022-08-29T20:39:21.955Z,2.90
2022-08-29T20:41:55.406Z,3.00
2022-08-29T20:44:23.665Z,3.03
2022-08-29T20:46:51.962Z,2.80
2022-08-29T20:49:21.726Z,2.80
2022-08-29T20:51:49.517Z,3.17
2022-08-29T20:54:24.055Z,2.47
2022-08-29T20:56:52.181Z,2.37
2022-08-29T20:59:19.275Z,2.80
2022-08-29T21:01:46.284Z,2.80
2022-08-29T21:04:35.237Z,3.10
2022-08-29T21:07:08.651Z,3.28
2022-08-29T21:09:36.271Z,2.90
2022-08-29T21:12:02.971Z,2.50
2022-08-29T21:14:29.388Z,2.60
2022-08-29T21:16:57.142Z,3.03
2022-08-29T21:19:26.303Z,2.80
2022-08-29T21:21:54.256Z,3.20
2022-08-29T21:24:21.068Z,3.23
2022-08-29T21:26:47.583Z,2.80
2022-08-29T21:29:14.232Z,2.57
2022-08-29T21:31:41.117Z,2.53
2022-08-29T21:34:10.584Z,2.72
2022-08-29T21:36:38.155Z,3.03
2022-08-29T21:39:06.807Z,2.50
2022-08-29T21:41:36.975Z,2.72
2022-08-29T21:44:03.846Z,2.95
2022-08-29T21:46:33.449Z,3.13
2022-08-29T21:49:04.822Z,2.55
2022-08-29T21:51:33.365Z,2.70
2022-08-29T21:54:00.842Z,2.90
2022-08-29T21:56:30.024Z,3.17
2022-08-29T21:58:57.289Z,2.80
2022-08-29T22:01:29.930Z,2.50
2022-08-29T22:04:02.035Z,2.83
2022-08-29T22:06:28.943Z,2.78
2022-08-29T22:08:56.119Z,2.63
2022-08-29T22:11:25.890Z,2.92
2022-08-29T22:14:05.169Z,2.30
2022-08-29T22:16:32.046Z,2.22
2022-08-29T22:19:05.292Z,3.10
2022-08-29T22:21:35.311Z,3.10
2022-08-29T22:24:02.054Z,2.53
2022-08-29T22:26:29.131Z,2.58
2022-08-29T22:28:55.995Z,2.58
2022-08-29T22:31:23.102Z,2.80
2022-08-29T22:33:49.604Z,2.90
2022-08-29T22:36:16.787Z,2.80
2022-08-29T22:38:45.386Z,2.33
2022-08-29T22:41:18.468Z,2.78
2022-08-29T22:43:45.306Z,2.78
2022-08-29T22:46:15.065Z,2.20
2022-08-29T22:48:42.369Z,2.50
2022-08-29T22:51:23.966Z,2.70
2022-08-29T22:54:09.876Z,2.28
2022-08-29T22:56:39.587Z,2.70
2022-08-29T22:59:07.331Z,2.60
2022-08-29T23:01:36.305Z,2.30
2022-08-29T23:04:03.574Z,2.60
2022-08-29T23:06:30.153Z,2.25
2022-08-29T23:08:57.317Z,2.40
2022-08-29T23:11:27.955Z,2.72
2022-08-29T23:13:56.125Z,2.40
2022-08-29T23:16:23.996Z,2.60
2022-08-29T23:18:50.918Z,2.58
2022-08-29T23:21:18.456Z,2.33
2022-08-29T23:23:45.134Z,2.13
2022-08-29T23:26:12.251Z,2.80
2022-08-29T23:28:38.828Z,2.92
2022-08-29T23:31:05.610Z,2.30
2022-08-29T23:33:32.131Z,2.80
2022-08-29T23:35:58.576Z,2.67
2022-08-29T23:38:25.205Z,2.45
2022-08-29T23:40:51.844Z,2.92
2022-08-29T23:43:20.957Z,2.65
2022-08-29T23:45:49.989Z,2.72
2022-08-29T23:48:16.622Z,2.40
2022-08-29T23:50:44.524Z,2.80
2022-08-29T23:53:15.670Z,2.50
2022-08-29T23:55:42.500Z,2.33
2022-08-29T23:58:09.063Z,2.85
